createdAt,value
2022-10-05T00:00:46.141Z,2.10
2022-10-05T00:03:13.089Z,1.73
2022-10-05T00:05:39.958Z,2.00
2022-10-05T00:08:18.650Z,1.80
2022-10-05T00:10:46.169Z,1.92
2022-10-05T00:13:23.579Z,1.60
2022-10-05T00:15:50.567Z,1.92
2022-10-05T00:18:19.629Z,2.05
2022-10-05T00:20:47.315Z,1.52
2022-10-05T00:23:29.675Z,1.70
2022-10-05T00:28:30.455Z,1.70
2022-10-05T00:30:58.026Z,1.90
2022-10-05T00:33:25.259Z,1.63
2022-10-05T00:35:54.441Z,1.98
2022-10-05T00:38:21.319Z,1.90
2022-10-05T00:41:00.610Z,1.60
2022-10-05T00:43:33.736Z,2.30
2022-10-05T00:46:08.744Z,1.60
2022-10-05T00:48:58.625Z,1.77
2022-10-05T00:51:29.364Z,2.00
2022-10-05T00:54:15.983Z,1.55
2022-10-05T00:56:57.164Z,1.60
2022-10-05T00:59:44.882Z,1.67
2022-10-05T01:02:23.784Z,1.77
2022-10-05T01:05:18.285Z,1.80
2022-10-05T01:07:48.365Z,1.38
2022-10-05T01:10:15.990Z,1.52
2022-10-05T01:13:04.232Z,1.70
2022-10-05T01:15:45.238Z,1.63
2022-10-05T01:18:24.589Z,1.58
2022-10-05T01:21:16.959Z,1.92
2022-10-05T01:24:08.486Z,1.55
2022-10-05T01:27:05.565Z,1.90
2022-10-05T01:29:50.293Z,1.70
2022-10-05T01:32:23.810Z,1.90
2022-10-05T01:35:06.089Z,1.50
2022-10-05T01:37:51.553Z,1.60
2022-10-05T01:40:21.627Z,1.92
2022-10-05T01:43:03.549Z,1.60
2022-10-05T01:45:45.923Z,1.80
2022-10-05T01:48:23.854Z,1.70
2022-10-05T01:51:20.036Z,2.00
2022-10-05T01:54:04.835Z,2.30
2022-10-05T01:57:06.858Z,2.28
2022-10-05T01:59:43.685Z,1.60
2022-10-05T02:02:12.921Z,1.75
2022-10-05T02:05:06.988Z,1.90
2022-10-05T02:07:44.017Z,1.88
2022-10-05T02:10:35.378Z,1.70
2022-10-05T02:13:10.740Z,1.58
2022-10-05T02:15:46.184Z,2.22
2022-10-05T02:18:25.218Z,1.70
2022-10-05T02:20:52.074Z,1.85
2022-10-05T02:23:21.106Z,1.75
2022-10-05T02:25:48.301Z,1.90
2022-10-05T02:28:29.511Z,2.10
2022-10-05T02:31:18.583Z,2.13
2022-10-05T02:33:48.175Z,2.00
2022-10-05T02:36:21.034Z,1.83
2022-10-05T02:39:19.137Z,2.00
2022-10-05T02:42:30.847Z,1.80
2022-10-05T02:45:06.942Z,1.95
2022-10-05T02:47:39.684Z,1.75
2022-10-05T02:50:27.343Z,1.80
2022-10-05T02:53:10.828Z,2.17
2022-10-05T02:55:59.801Z,1.80
2022-10-05T02:58:35.192Z,1.80
2022-10-05T03:01:36.045Z,1.80
2022-10-05T03:04:27.630Z,2.17
2022-10-05T03:07:12.021Z,2.03
2022-10-05T03:10:10.038Z,1.90
2022-10-05T03:12:37.074Z,2.17
2022-10-05T03:15:13.073Z,1.85
2022-10-05T03:18:21.844Z,2.45
2022-10-05T03:20:57.878Z,2.20
2022-10-05T03:23:39.482Z,2.05
2022-10-05T03:26:33.542Z,1.90
2022-10-05T03:29:26.226Z,1.92
2022-10-05T03:32:32.295Z,2.10
2022-10-05T03:35:16.900Z,1.90
2022-10-05T03:38:08.817Z,2.00
2022-10-05T03:40:54.536Z,1.70
2022-10-05T03:43:53.441Z,1.92
2022-10-05T03:46:45.847Z,1.80
2022-10-05T03:52:28.322Z,1.80
2022-10-05T03:55:00.229Z,1.90
2022-10-05T03:57:28.463Z,2.55
2022-10-05T04:00:18.963Z,2.05
2022-10-05T04:03:01.285Z,2.10
2022-10-05T04:05:43.489Z,2.22
2022-10-05T04:08:35.561Z,2.00
2022-10-05T04:11:06.233Z,2.22
2022-10-05T04:13:53.826Z,1.90
2022-10-05T04:16:28.184Z,2.00
2022-10-05T04:19:35.538Z,2.38
2022-10-05T04:22:32.318Z,2.10
2022-10-05T04:25:15.209Z,2.10
2022-10-05T04:27:46.038Z,2.00
2022-10-05T04:30:17.674Z,1.98
2022-10-05T04:32:55.603Z,1.90
2022-10-05T04:35:40.675Z,1.88
2022-10-05T04:38:41.205Z,1.90
2022-10-05T04:41:54.005Z,2.00
2022-10-05T04:44:45.370Z,1.98
2022-10-05T04:47:18.502Z,1.90
2022-10-05T04:50:01.673Z,2.03
2022-10-05T04:52:34.229Z,1.80
2022-10-05T04:55:27.739Z,1.83
2022-10-05T04:58:21.141Z,1.90
2022-10-05T05:01:20.559Z,2.20
2022-10-05T05:03:59.630Z,2.00
2022-10-05T05:06:40.395Z,2.05
2022-10-05T05:09:10.366Z,2.13
2022-10-05T05:12:00.714Z,2.25
2022-10-05T05:14:49.442Z,1.60
2022-10-05T05:17:46.599Z,1.90
2022-10-05T05:20:21.367Z,1.88
2022-10-05T05:23:09.699Z,1.98
2022-10-05T05:25:57.458Z,1.55
2022-10-05T05:28:40.327Z,1.70
2022-10-05T05:31:26.518Z,1.80
2022-10-05T05:34:19.513Z,1.90
2022-10-05T05:36:52.767Z,1.80
2022-10-05T05:39:29.669Z,1.83
2022-10-05T05:42:46.350Z,1.88
2022-10-05T05:45:32.353Z,1.95
2022-10-05T05:47:59.574Z,1.83
2022-10-05T05:51:15.161Z,2.30
2022-10-05T05:53:47.442Z,2.03
2022-10-05T05:58:52.032Z,2.30
2022-10-05T06:01:38.490Z,2.05
2022-10-05T06:04:15.871Z,1.88
2022-10-05T06:06:46.091Z,2.20
2022-10-05T06:09:22.213Z,2.03
2022-10-05T06:12:05.397Z,2.15
2022-10-05T06:14:39.719Z,1.80
2022-10-05T06:17:14.944Z,2.00
2022-10-05T06:19:41.867Z,2.40
2022-10-05T06:22:24.949Z,2.00
2022-10-05T06:25:11.864Z,2.10
2022-10-05T06:27:58.412Z,2.40
2022-10-05T06:30:28.790Z,2.15
2022-10-05T06:33:14.582Z,2.45
2022-10-05T06:35:44.230Z,2.08
2022-10-05T06:38:11.791Z,1.70
2022-10-05T06:41:06.950Z,1.95
2022-10-05T06:44:07.615Z,1.92
2022-10-05T06:46:46.229Z,1.63
2022-10-05T06:49:40.883Z,1.63
2022-10-05T06:52:34.934Z,1.65
2022-10-05T06:55:14.180Z,1.60
2022-10-05T06:58:01.105Z,2.05
2022-10-05T07:00:58.190Z,1.67
2022-10-05T07:03:30.887Z,1.70
2022-10-05T07:06:25.855Z,1.50
2022-10-05T07:08:54.847Z,1.65
2022-10-05T07:12:11.644Z,1.40
2022-10-05T07:15:18.157Z,1.98
2022-10-05T07:18:04.743Z,1.63
2022-10-05T07:20:56.539Z,1.55
2022-10-05T07:26:01.765Z,1.63
2022-10-05T07:28:34.840Z,1.95
2022-10-05T07:31:36.547Z,1.80
2022-10-05T07:34:13.376Z,1.58
2022-10-05T07:37:01.006Z,1.70
2022-10-05T07:39:59.793Z,1.95
2022-10-05T07:42:52.794Z,1.65
2022-10-05T07:45:23.262Z,1.67
2022-10-05T07:47:54.437Z,1.60
2022-10-05T07:50:34.055Z,1.95
2022-10-05T07:53:15.935Z,1.90
2022-10-05T07:55:50.104Z,2.13
2022-10-05T07:58:22.103Z,1.73
2022-10-05T08:01:08.882Z,1.90
2022-10-05T08:04:05.110Z,1.95
2022-10-05T08:06:38.150Z,1.70
2022-10-05T08:09:26.910Z,1.85
2022-10-05T08:12:20.245Z,2.25
2022-10-05T08:14:52.779Z,2.40
2022-10-05T08:18:07.647Z,1.65
2022-10-05T08:21:11.840Z,1.70
2022-10-05T08:23:56.576Z,1.90
2022-10-05T08:26:43.441Z,2.03
2022-10-05T08:29:18.886Z,2.63
2022-10-05T08:32:33.639Z,2.10
2022-10-05T08:35:03.543Z,1.90
2022-10-05T08:37:33.541Z,2.10
2022-10-05T08:40:18.739Z,1.77
2022-10-05T08:42:48.630Z,2.03
2022-10-05T08:45:39.798Z,1.70
2022-10-05T08:48:51.305Z,2.10
2022-10-05T08:51:27.177Z,2.22
2022-10-05T08:54:22.201Z,2.00
2022-10-05T08:57:12.369Z,2.10
2022-10-05T08:59:54.434Z,2.35
2022-10-05T09:02:43.788Z,2.00
2022-10-05T09:05:48.018Z,2.10
2022-10-05T09:08:33.443Z,1.88
2022-10-05T09:11:22.089Z,2.20
2022-10-05T09:14:04.047Z,2.45
2022-10-05T09:16:49.781Z,1.88
2022-10-05T09:19:51.839Z,2.00
2022-10-05T09:22:27.631Z,1.98
2022-10-05T09:24:59.319Z,2.20
2022-10-05T09:27:35.412Z,2.25
2022-10-05T09:30:14.319Z,2.25
2022-10-05T09:33:02.976Z,1.90
2022-10-05T09:36:07.396Z,1.92
2022-10-05T09:39:08.281Z,2.20
2022-10-05T09:41:50.322Z,1.75
2022-10-05T09:44:18.719Z,2.08
2022-10-05T09:46:54.817Z,2.00
2022-10-05T09:49:56.801Z,1.85
2022-10-05T09:53:01.692Z,2.05
2022-10-05T09:55:32.246Z,1.67
2022-10-05T09:58:28.253Z,2.08
2022-10-05T10:01:28.999Z,2.03
2022-10-05T10:04:35.231Z,2.15
2022-10-05T10:07:16.582Z,2.30
2022-10-05T10:10:05.354Z,2.13
2022-10-05T10:13:09.717Z,2.10
2022-10-05T10:16:06.403Z,2.38
2022-10-05T10:19:01.066Z,2.10
2022-10-05T10:21:39.695Z,2.25
2022-10-05T10:24:35.381Z,2.33
2022-10-05T10:27:32.176Z,2.20
2022-10-05T10:30:20.092Z,2.10
2022-10-05T10:32:52.806Z,2.08
2022-10-05T10:35:36.235Z,2.20
2022-10-05T10:38:20.198Z,2.63
2022-10-05T10:40:55.924Z,1.95
2022-10-05T10:43:32.472Z,2.35
2022-10-05T10:46:20.755Z,1.90
2022-10-05T10:48:51.417Z,2.17
2022-10-05T10:51:37.203Z,2.40
2022-10-05T10:54:42.136Z,1.90
2022-10-05T10:57:22.792Z,2.30
2022-10-05T11:00:19.669Z,2.30
2022-10-05T11:03:01.581Z,2.10
2022-10-05T11:06:07.743Z,2.10
2022-10-05T11:08:46.548Z,1.88
2022-10-05T11:11:19.735Z,2.03
2022-10-05T11:13:52.619Z,2.47
2022-10-05T11:16:25.347Z,2.13
2022-10-05T11:19:07.306Z,2.10
2022-10-05T11:21:56.591Z,2.67
2022-10-05T11:24:54.678Z,2.40
2022-10-05T11:27:27.275Z,2.70
2022-10-05T11:30:06.033Z,2.47
2022-10-05T11:33:11.390Z,2.35
2022-10-05T11:36:04.658Z,2.88
2022-10-05T11:38:40.355Z,2.40
2022-10-05T11:41:23.103Z,2.53
2022-10-05T11:44:28.017Z,2.08
2022-10-05T11:47:02.986Z,2.22
2022-10-05T11:49:47.958Z,2.72
2022-10-05T11:52:38.768Z,2.70
2022-10-05T11:55:10.986Z,2.40
2022-10-05T11:57:54.450Z,2.33
2022-10-05T12:00:51.347Z,2.47
2022-10-05T12:03:44.157Z,2.47
2022-10-05T12:06:17.084Z,2.20
2022-10-05T12:09:19.356Z,2.00
2022-10-05T12:12:07.941Z,1.80
2022-10-05T12:15:11.686Z,2.03
2022-10-05T12:17:43.570Z,2.30
2022-10-05T12:20:27.934Z,2.20
2022-10-05T12:23:02.455Z,2.25
2022-10-05T12:25:42.348Z,1.60
2022-10-05T12:28:15.574Z,2.08
2022-10-05T12:30:58.241Z,2.58
2022-10-05T12:33:45.922Z,1.90
2022-10-05T12:36:52.434Z,1.92
2022-10-05T12:39:32.830Z,1.90
2022-10-05T12:42:11.375Z,2.20
2022-10-05T12:44:39.682Z,2.50
2022-10-05T12:47:28.215Z,1.90
2022-10-05T12:50:10.906Z,1.88
2022-10-05T12:53:01.849Z,1.77
2022-10-05T12:55:59.610Z,2.60
2022-10-05T12:58:36.004Z,2.10
2022-10-05T13:01:26.565Z,3.28
2022-10-05T13:04:28.908Z,2.00
2022-10-05T13:07:29.998Z,2.40
2022-10-05T13:10:02.951Z,2.30
2022-10-05T13:12:46.861Z,2.53
2022-10-05T13:15:27.877Z,3.47
2022-10-05T13:18:22.489Z,2.80
2022-10-05T13:20:57.379Z,2.75
2022-10-05T13:23:39.253Z,2.70
2022-10-05T13:26:10.661Z,3.30
2022-10-05T13:28:40.650Z,3.78
2022-10-05T13:31:13.158Z,2.80
2022-10-05T13:33:42.787Z,3.33
2022-10-05T13:36:25.651Z,2.80
2022-10-05T13:39:05.047Z,2.80
2022-10-05T13:41:51.809Z,3.30
2022-10-05T13:44:27.380Z,3.00
2022-10-05T13:47:05.165Z,2.97
2022-10-05T13:50:04.059Z,3.03
2022-10-05T13:52:35.146Z,2.50
2022-10-05T13:55:35.754Z,2.58
2022-10-05T13:58:12.776Z,2.92
2022-10-05T14:00:52.189Z,2.60
2022-10-05T14:03:35.950Z,1.90
2022-10-05T14:06:12.899Z,1.70
2022-10-05T14:08:52.644Z,1.40
2022-10-05T14:11:32.743Z,1.10
2022-10-05T14:14:16.255Z,0.98
2022-10-05T14:16:53.976Z,1.10
2022-10-05T14:19:42.139Z,1.10
2022-10-05T14:22:23.343Z,1.00
2022-10-05T14:24:52.080Z,1.10
2022-10-05T14:27:26.869Z,1.10
2022-10-05T14:30:11.782Z,1.20
2022-10-05T14:33:03.474Z,1.20
2022-10-05T14:35:50.664Z,1.10
2022-10-05T14:38:21.828Z,1.10
2022-10-05T14:41:07.808Z,1.17
2022-10-05T14:43:34.775Z,1.30
2022-10-05T14:46:17.465Z,1.13
2022-10-05T14:48:46.330Z,1.08
2022-10-05T14:51:28.310Z,1.15
2022-10-05T14:53:59.666Z,1.10
2022-10-05T14:56:26.589Z,1.20
2022-10-05T14:59:14.236Z,1.00
2022-10-05T15:02:31.772Z,1.27
2022-10-05T15:05:15.349Z,1.20
2022-10-05T15:07:48.197Z,1.10
2022-10-05T15:10:26.918Z,1.20
2022-10-05T15:13:18.657Z,1.13
2022-10-05T15:15:56.420Z,1.10
2022-10-05T15:18:44.001Z,1.10
2022-10-05T15:21:36.043Z,1.10
2022-10-05T15:24:09.451Z,1.13
2022-10-05T15:26:56.858Z,1.00
2022-10-05T15:29:36.262Z,1.15
2022-10-05T15:32:41.551Z,1.08
2022-10-05T15:35:36.046Z,1.10
2022-10-05T15:38:25.802Z,1.10
2022-10-05T15:41:03.862Z,1.23
2022-10-05T15:43:40.392Z,1.23
2022-10-05T15:46:14.119Z,1.20
2022-10-05T15:49:02.305Z,1.08
2022-10-05T15:51:56.412Z,1.00
2022-10-05T15:54:42.837Z,1.00
2022-10-05T15:57:26.092Z,1.63
2022-10-05T16:00:04.285Z,1.08
2022-10-05T16:02:49.078Z,1.10
2022-10-05T16:06:11.962Z,1.20
2022-10-05T16:08:58.519Z,1.50
2022-10-05T16:11:37.760Z,1.83
2022-10-05T16:14:20.670Z,1.08
2022-10-05T16:17:05.580Z,1.30
2022-10-05T16:19:57.472Z,1.10
2022-10-05T16:22:39.919Z,1.10
2022-10-05T16:25:12.724Z,1.00
2022-10-05T16:27:42.542Z,1.30
2022-10-05T16:30:12.057Z,1.30
2022-10-05T16:33:03.513Z,1.40
2022-10-05T16:35:46.669Z,1.13
2022-10-05T16:38:38.722Z,1.10
2022-10-05T16:41:37.652Z,1.05
2022-10-05T16:44:14.041Z,1.10
2022-10-05T16:46:54.781Z,1.40
2022-10-05T16:49:22.003Z,1.35
2022-10-05T16:52:02.359Z,1.10
2022-10-05T16:54:48.144Z,1.10
2022-10-05T16:57:24.806Z,1.20
2022-10-05T17:00:03.622Z,1.10
2022-10-05T17:02:51.490Z,1.15
2022-10-05T17:05:18.486Z,1.60
2022-10-05T17:07:54.101Z,1.70
2022-10-05T17:10:38.066Z,1.73
2022-10-05T17:13:08.067Z,1.45
2022-10-05T17:16:10.982Z,1.40
2022-10-05T17:19:04.947Z,1.30
2022-10-05T17:21:44.877Z,1.17
2022-10-05T17:24:11.667Z,1.52
2022-10-05T17:27:17.275Z,1.40
2022-10-05T17:29:47.702Z,1.27
2022-10-05T17:32:17.348Z,1.20
2022-10-05T17:35:02.234Z,1.40
2022-10-05T17:37:45.027Z,1.10
2022-10-05T17:40:34.046Z,1.30
2022-10-05T17:43:23.951Z,1.50
2022-10-05T17:45:53.261Z,1.92
2022-10-05T17:48:38.920Z,1.40
2022-10-05T17:51:37.132Z,1.30
2022-10-05T17:55:01.733Z,1.50
2022-10-05T17:57:28.793Z,1.20
2022-10-05T17:59:56.727Z,1.27
2022-10-05T18:02:36.663Z,1.35
2022-10-05T18:05:04.523Z,1.55
2022-10-05T18:07:34.730Z,1.45
2022-10-05T18:10:28.877Z,1.40
2022-10-05T18:13:01.966Z,1.25
2022-10-05T18:15:28.991Z,1.83
2022-10-05T18:17:58.691Z,1.50
2022-10-05T18:20:31.729Z,1.30
2022-10-05T18:23:01.541Z,1.45
2022-10-05T18:25:44.203Z,1.40
2022-10-05T18:28:35.305Z,1.33
2022-10-05T18:31:21.210Z,1.95
2022-10-05T18:34:10.302Z,1.58
2022-10-05T18:36:56.208Z,1.40
2022-10-05T18:39:41.395Z,1.67
2022-10-05T18:42:27.294Z,1.27
2022-10-05T18:45:35.912Z,1.48
2022-10-05T18:48:06.442Z,1.35
2022-10-05T18:50:43.089Z,1.20
2022-10-05T18:53:10.374Z,1.95
2022-10-05T18:55:55.970Z,2.00
2022-10-05T18:58:43.771Z,1.85
2022-10-05T19:01:22.742Z,1.73
2022-10-05T19:03:49.675Z,1.70
2022-10-05T19:06:24.343Z,2.20
2022-10-05T19:08:59.471Z,1.60
2022-10-05T19:11:54.929Z,1.65
2022-10-05T19:14:45.281Z,2.00
2022-10-05T19:17:21.423Z,2.35
2022-10-05T19:20:17.388Z,2.20
2022-10-05T19:23:12.035Z,2.08
2022-10-05T19:26:03.729Z,2.28
2022-10-05T19:28:38.965Z,1.90
2022-10-05T19:31:12.203Z,2.30
2022-10-05T19:33:41.801Z,1.73
2022-10-05T19:36:35.591Z,1.70
2022-10-05T19:39:15.609Z,2.20
2022-10-05T19:42:14.943Z,1.70
2022-10-05T19:45:13.850Z,1.88
2022-10-05T19:47:46.815Z,2.15
2022-10-05T19:50:33.704Z,1.88
2022-10-05T19:53:12.930Z,2.08
2022-10-05T19:55:43.764Z,2.30
2022-10-05T19:58:18.602Z,2.55
2022-10-05T20:00:56.801Z,1.90
2022-10-05T20:03:29.215Z,2.10
2022-10-05T20:08:26.886Z,2.10
2022-10-05T20:11:11.606Z,2.35
2022-10-05T20:13:41.796Z,1.98
2022-10-05T20:16:48.660Z,1.90
2022-10-05T20:19:50.428Z,2.15
2022-10-05T20:22:33.242Z,2.15
2022-10-05T20:25:01.312Z,1.90
2022-10-05T20:27:43.946Z,1.92
2022-10-05T20:30:13.036Z,2.50
2022-10-05T20:32:39.923Z,2.58
2022-10-05T20:35:07.187Z,2.58
2022-10-05T20:37:34.033Z,2.60
2022-10-05T20:40:00.831Z,2.38
2022-10-05T20:42:27.626Z,2.03
2022-10-05T20:44:57.038Z,2.42
2022-10-05T20:47:24.562Z,2.88
2022-10-05T20:49:53.411Z,2.03
2022-10-05T20:52:20.484Z,2.17
2022-10-05T20:54:47.535Z,2.40
2022-10-05T20:57:14.423Z,2.33
2022-10-05T20:59:41.300Z,2.33
2022-10-05T21:02:08.200Z,2.20
2022-10-05T21:04:40.961Z,2.42
2022-10-05T21:07:08.658Z,2.20
2022-10-05T21:09:38.369Z,2.38
2022-10-05T21:12:05.432Z,2.55
2022-10-05T21:14:34.386Z,2.42
2022-10-05T21:17:02.157Z,2.50
2022-10-05T21:19:29.567Z,2.65
2022-10-05T21:21:59.308Z,2.20
2022-10-05T21:24:26.348Z,2.45
2022-10-05T21:26:57.682Z,2.60
2022-10-05T21:29:24.723Z,2.38
2022-10-05T21:31:51.740Z,2.45
2022-10-05T21:34:18.674Z,3.13
2022-10-05T21:36:45.550Z,2.30
2022-10-05T21:39:12.395Z,2.30
2022-10-05T21:41:39.242Z,2.58
2022-10-05T21:44:06.751Z,2.70
2022-10-05T21:46:34.974Z,2.67
2022-10-05T21:49:01.818Z,2.30
2022-10-05T21:51:28.735Z,2.42
2022-10-05T21:54:01.810Z,2.33
2022-10-05T21:56:34.825Z,2.95
2022-10-05T21:59:03.311Z,2.40
2022-10-05T22:01:30.286Z,2.35
2022-10-05T22:03:57.171Z,2.05
2022-10-05T22:06:24.090Z,2.95
2022-10-05T22:08:51.010Z,2.70
2022-10-05T22:11:17.993Z,1.98
2022-10-05T22:13:46.954Z,2.45
2022-10-05T22:16:14.186Z,2.38
2022-10-05T22:18:41.128Z,2.38
2022-10-05T22:21:08.887Z,2.15
2022-10-05T22:23:36.015Z,2.72
2022-10-05T22:26:02.912Z,2.72
2022-10-05T22:28:30.909Z,2.30
2022-10-05T22:30:59.050Z,2.15
2022-10-05T22:33:25.955Z,2.10
2022-10-05T22:35:52.894Z,2.08
2022-10-05T22:38:19.794Z,2.13
2022-10-05T22:40:46.595Z,2.67
2022-10-05T22:43:13.910Z,2.40
2022-10-05T22:45:40.836Z,2.33
2022-10-05T22:48:07.755Z,2.28
2022-10-05T22:50:34.783Z,2.17
2022-10-05T22:53:01.653Z,2.30
2022-10-05T22:55:28.535Z,2.40
2022-10-05T22:57:55.417Z,2.05
2022-10-05T23:00:27.688Z,2.50
2022-10-05T23:03:02.126Z,2.38
2022-10-05T23:05:28.968Z,2.50
2022-10-05T23:07:55.780Z,2.50
2022-10-05T23:10:22.658Z,2.15
2022-10-05T23:13:01.037Z,2.40
2022-10-05T23:15:28.231Z,2.05
2022-10-05T23:17:56.242Z,2.72
2022-10-05T23:20:24.691Z,2.50
2022-10-05T23:22:51.655Z,1.92
2022-10-05T23:25:18.779Z,2.35
2022-10-05T23:27:45.592Z,2.30
2022-10-05T23:30:12.881Z,2.00
2022-10-05T23:32:42.241Z,2.60
2022-10-05T23:35:10.041Z,2.10
2022-10-05T23:37:40.971Z,2.78
2022-10-05T23:40:08.914Z,2.00
2022-10-05T23:42:35.910Z,2.50
2022-10-05T23:45:02.805Z,2.58
2022-10-05T23:47:29.769Z,2.65
2022-10-05T23:49:56.645Z,2.10
2022-10-05T23:52:23.477Z,2.72
2022-10-05T23:54:50.277Z,2.80
2022-10-05T23:57:18.290Z,2.72
2022-10-05T23:59:45.115Z,2.33
